createdAt,value
2022-08-26T00:00:38.677Z,100134.60
2022-08-26T00:03:12.354Z,100131.80
2022-08-26T00:05:47.651Z,100127.00
2022-08-26T00:08:22.839Z,100128.60
2022-08-26T00:10:57.212Z,100124.60
2022-08-26T00:13:37.213Z,100122.20
2022-08-26T00:16:13.550Z,100120.20
2022-08-26T00:18:46.980Z,100119.40
2022-08-26T00:21:22.009Z,100121.80
2022-08-26T00:23:57.767Z,100118.60
2022-08-26T00:26:33.940Z,100116.40
2022-08-26T00:29:07.346Z,100116.20
2022-08-26T00:31:41.092Z,100116.60
2022-08-26T00:34:16.768Z,100113.60
2022-08-26T00:36:54.700Z,100107.60
2022-08-26T00:39:28.391Z,100103.60
2022-08-26T00:42:01.947Z,100104.40
2022-08-26T00:44:35.678Z,100102.80
2022-08-26T00:47:24.358Z,100101.20
2022-08-26T00:49:59.205Z,100104.40
2022-08-26T00:52:34.810Z,100107.00
2022-08-26T00:55:20.164Z,100100.80
2022-08-26T00:57:56.657Z,100097.40
2022-08-26T01:00:36.072Z,100097.20
2022-08-26T01:03:11.646Z,100098.40
2022-08-26T01:05:48.140Z,100096.40
2022-08-26T01:08:21.834Z,100093.80
2022-08-26T01:11:01.172Z,100093.40
2022-08-26T01:13:36.974Z,100095.60
2022-08-26T01:16:18.097Z,100092.00
2022-08-26T01:18:52.631Z,100096.00
2022-08-26T01:21:36.042Z,100097.40
2022-08-26T01:24:16.798Z,100092.80
2022-08-26T01:26:51.447Z,100098.60
2022-08-26T01:29:25.362Z,100102.00
2022-08-26T01:32:00.583Z,100100.40
2022-08-26T01:34:37.544Z,100101.00
2022-08-26T01:37:16.241Z,100099.40
2022-08-26T01:39:55.466Z,100099.40
2022-08-26T01:42:31.306Z,100100.20
2022-08-26T01:45:11.391Z,100097.20
2022-08-26T01:47:47.373Z,100093.40
2022-08-26T01:50:30.676Z,100093.60
2022-08-26T01:53:12.390Z,100094.00
2022-08-26T01:55:53.033Z,100094.40
2022-08-26T01:58:33.215Z,100095.60
2022-08-26T02:01:10.085Z,100098.20
2022-08-26T02:04:02.372Z,100100.00
2022-08-26T02:06:37.054Z,100103.20
2022-08-26T02:09:11.229Z,100100.20
2022-08-26T02:11:45.230Z,100098.40
2022-08-26T02:14:24.055Z,100094.20
2022-08-26T02:17:01.222Z,100093.00
2022-08-26T02:19:39.937Z,100089.60
2022-08-26T02:22:19.787Z,100094.20
2022-08-26T02:24:57.444Z,100091.40
2022-08-26T02:27:35.079Z,100091.40
2022-08-26T02:30:19.306Z,100095.00
2022-08-26T02:32:53.253Z,100091.80
2022-08-26T02:35:28.088Z,100092.80
2022-08-26T02:38:03.041Z,100090.60
2022-08-26T02:40:45.777Z,100089.00
2022-08-26T02:43:31.367Z,100091.20
2022-08-26T02:46:07.983Z,100087.80
2022-08-26T02:48:42.090Z,100090.00
2022-08-26T02:51:15.491Z,100084.60
2022-08-26T02:53:49.043Z,100091.60
2022-08-26T02:56:27.036Z,100087.80
2022-08-26T02:59:00.744Z,100086.40
2022-08-26T03:01:37.175Z,100085.80
2022-08-26T03:04:14.319Z,100080.40
2022-08-26T03:06:53.074Z,100077.00
2022-08-26T03:09:29.009Z,100075.80
2022-08-26T03:12:02.899Z,100078.80
2022-08-26T03:14:36.292Z,100074.20
2022-08-26T03:17:10.135Z,100071.80
2022-08-26T03:19:43.470Z,100071.60
2022-08-26T03:22:17.887Z,100069.60
2022-08-26T03:24:57.054Z,100063.60
2022-08-26T03:27:32.816Z,100066.20
2022-08-26T03:30:45.305Z,100061.60
2022-08-26T03:33:20.353Z,100061.00
2022-08-26T03:35:54.906Z,100056.60
2022-08-26T03:38:28.333Z,100057.40
2022-08-26T03:41:04.852Z,100056.20
2022-08-26T03:43:40.728Z,100054.40
2022-08-26T03:46:21.329Z,100060.80
2022-08-26T03:48:54.895Z,100058.60
2022-08-26T03:51:28.679Z,100060.40
2022-08-26T03:54:03.105Z,100060.60
2022-08-26T03:56:36.886Z,100059.60
2022-08-26T03:59:12.429Z,100059.00
2022-08-26T04:01:45.775Z,100059.20
2022-08-26T04:04:22.742Z,100058.20
2022-08-26T04:07:01.229Z,100061.20
2022-08-26T04:09:35.237Z,100062.00
2022-08-26T04:12:10.843Z,100062.20
2022-08-26T04:14:44.818Z,100065.20
2022-08-26T04:17:18.232Z,100070.00
2022-08-26T04:19:52.115Z,100059.80
2022-08-26T04:22:25.539Z,100058.20
2022-08-26T04:24:59.714Z,100058.40
2022-08-26T04:27:36.074Z,100059.20
2022-08-26T04:30:14.358Z,100063.40
2022-08-26T04:32:55.950Z,100065.60
2022-08-26T04:35:32.132Z,100061.20
2022-08-26T04:38:05.901Z,100064.80
2022-08-26T04:40:47.076Z,100066.40
2022-08-26T04:43:20.446Z,100068.20
2022-08-26T04:45:56.845Z,100069.00
2022-08-26T04:48:30.791Z,100068.00
2022-08-26T04:51:05.368Z,100068.00
2022-08-26T04:53:38.936Z,100062.20
2022-08-26T04:56:12.617Z,100055.80
2022-08-26T04:58:46.192Z,100057.60
2022-08-26T05:01:20.037Z,100054.40
2022-08-26T05:03:54.878Z,100057.60
2022-08-26T05:06:28.713Z,100058.00
2022-08-26T05:09:10.505Z,100060.60
2022-08-26T05:11:45.672Z,100065.60
2022-08-26T05:14:26.128Z,100063.40
2022-08-26T05:16:59.520Z,100060.20
2022-08-26T05:19:37.193Z,100063.80
2022-08-26T05:22:18.391Z,100065.20
2022-08-26T05:24:51.931Z,100070.20
2022-08-26T05:27:26.726Z,100073.60
2022-08-26T05:30:02.401Z,100076.20
2022-08-26T05:32:47.532Z,100077.00
2022-08-26T05:35:21.184Z,100075.40
2022-08-26T05:37:56.005Z,100069.00
2022-08-26T05:40:31.236Z,100070.80
2022-08-26T05:43:10.529Z,100067.00
2022-08-26T05:45:47.505Z,100064.60
2022-08-26T05:48:24.338Z,100065.60
2022-08-26T05:50:58.435Z,100061.60
2022-08-26T05:53:33.076Z,100062.00
2022-08-26T05:56:11.524Z,100062.20
2022-08-26T05:58:46.197Z,100058.00
2022-08-26T06:01:24.272Z,100053.60
2022-08-26T06:04:01.534Z,100055.00
2022-08-26T06:06:41.676Z,100056.80
2022-08-26T06:09:18.653Z,100057.80
2022-08-26T06:11:52.872Z,100063.20
2022-08-26T06:14:27.023Z,100065.80
2022-08-26T06:17:00.945Z,100061.60
2022-08-26T06:19:34.637Z,100060.40
2022-08-26T06:22:27.922Z,100060.40
2022-08-26T06:25:18.979Z,100058.20
2022-08-26T06:27:52.670Z,100062.40
2022-08-26T06:30:26.100Z,100064.20
2022-08-26T06:32:59.403Z,100067.80
2022-08-26T06:35:36.977Z,100067.20
2022-08-26T06:38:11.528Z,100069.60
2022-08-26T06:40:49.377Z,100066.80
2022-08-26T06:43:26.163Z,100069.60
2022-08-26T06:46:11.821Z,100068.60
2022-08-26T06:48:46.026Z,100074.20
2022-08-26T06:51:23.717Z,100068.80
2022-08-26T06:54:00.608Z,100064.40
2022-08-26T06:56:39.746Z,100064.00
2022-08-26T06:59:15.389Z,100059.80
2022-08-26T07:01:50.022Z,100055.40
2022-08-26T07:04:25.032Z,100062.40
2022-08-26T07:07:01.867Z,100063.60
2022-08-26T07:09:35.812Z,100062.80
2022-08-26T07:12:10.696Z,100062.20
2022-08-26T07:14:47.481Z,100061.80
2022-08-26T07:17:21.758Z,100066.00
2022-08-26T07:19:58.316Z,100064.60
2022-08-26T07:22:32.985Z,100066.20
2022-08-26T07:25:08.726Z,100064.00
2022-08-26T07:27:42.737Z,100065.20
2022-08-26T07:30:18.547Z,100067.40
2022-08-26T09:07:20.373Z,100048.00
2022-08-26T09:10:00.473Z,100040.40
2022-08-26T09:12:37.639Z,100043.80
2022-08-26T09:15:21.607Z,100044.00
2022-08-26T09:18:08.142Z,100040.00
2022-08-26T09:20:56.506Z,100035.40
2022-08-26T09:23:31.264Z,100035.40
2022-08-26T09:26:16.718Z,100031.40
2022-08-26T09:28:58.016Z,100037.80
2022-08-26T09:31:36.251Z,100035.00
2022-08-26T09:34:22.081Z,100033.40
2022-08-26T09:36:58.287Z,100028.40
2022-08-26T09:39:37.873Z,100030.40
2022-08-26T09:42:24.479Z,100024.80
2022-08-26T09:45:00.945Z,100030.00
2022-08-26T09:47:38.721Z,100026.40
2022-08-26T09:50:28.818Z,100026.80
2022-08-26T09:53:20.822Z,100024.40
2022-08-26T09:56:15.647Z,100020.60
2022-08-26T09:58:50.704Z,100014.60
2022-08-26T10:01:36.974Z,100013.60
2022-08-26T10:04:16.231Z,100008.40
2022-08-26T10:07:02.683Z,100012.60
2022-08-26T10:09:43.173Z,100009.00
2022-08-26T10:12:22.205Z,100007.60
2022-08-26T10:15:05.462Z,100005.40
2022-08-26T10:17:48.843Z,100008.60
2022-08-26T10:20:47.321Z,100005.40
2022-08-26T10:23:25.917Z,100006.80
2022-08-26T10:26:06.574Z,100007.20
2022-08-26T10:28:49.459Z,99998.40
2022-08-26T10:31:38.360Z,99996.00
2022-08-26T10:34:17.725Z,99994.80
2022-08-26T10:37:13.906Z,99992.20
2022-08-26T10:39:59.142Z,99990.20
2022-08-26T10:42:38.266Z,99993.40
2022-08-26T10:45:16.670Z,99989.00
2022-08-26T10:47:56.625Z,99988.40
2022-08-26T10:50:35.375Z,99982.80
2022-08-26T10:53:24.907Z,99983.20
2022-08-26T10:56:18.588Z,99980.80
2022-08-26T10:59:12.687Z,99979.80
2022-08-26T11:01:55.197Z,99976.00
2022-08-26T11:04:48.510Z,99979.00
2022-08-26T11:07:52.639Z,99972.00
2022-08-26T11:11:05.416Z,99972.00
2022-08-26T11:14:08.674Z,99969.40
2022-08-26T11:16:45.241Z,99965.40
2022-08-26T11:20:03.328Z,99966.20
2022-08-26T11:22:48.057Z,99962.80
2022-08-26T11:25:27.857Z,99955.80
2022-08-26T11:28:05.139Z,99954.40
2022-08-26T11:30:57.886Z,99953.60
2022-08-26T11:33:54.713Z,99952.60
2022-08-26T11:36:57.891Z,99946.40
2022-08-26T11:39:55.443Z,99941.80
2022-08-26T11:42:41.044Z,99942.60
2022-08-26T11:45:29.321Z,99941.60
2022-08-26T11:48:17.797Z,99936.60
2022-08-26T11:51:00.556Z,99934.80
2022-08-26T11:53:37.247Z,99936.60
2022-08-26T11:56:17.614Z,99935.80
2022-08-26T11:58:53.469Z,99933.80
2022-08-26T12:01:35.838Z,99931.20
2022-08-26T12:04:14.879Z,99922.20
2022-08-26T12:06:53.453Z,99838.40
2022-08-26T12:09:31.440Z,99860.80
2022-08-26T12:12:24.322Z,99862.60
2022-08-26T12:15:23.761Z,99863.60
2022-08-26T12:17:58.151Z,99851.20
2022-08-26T12:20:51.479Z,99851.80
2022-08-26T12:23:32.079Z,99861.80
2022-08-26T12:26:12.299Z,99868.40
2022-08-26T12:28:52.965Z,99867.20
2022-08-26T12:31:32.639Z,99870.00
2022-08-26T12:34:17.707Z,99870.00
2022-08-26T12:36:56.746Z,99868.80
2022-08-26T14:53:37.148Z,99809.60
2022-08-26T14:56:42.122Z,99810.40
2022-08-26T14:59:25.653Z,99806.00
2022-08-26T15:03:11.664Z,99803.20
2022-08-26T15:06:36.208Z,99804.40
2022-08-26T15:09:59.066Z,99797.00
2022-08-26T15:15:53.749Z,99803.40
2022-08-26T15:18:27.190Z,99800.40
2022-08-26T15:21:00.471Z,99808.20
2022-08-26T15:23:33.957Z,99812.80
2022-08-26T15:26:08.911Z,99804.80
2022-08-26T15:28:42.805Z,99801.00
2022-08-26T15:31:16.237Z,99797.00
2022-08-26T15:33:52.984Z,99794.00
2022-08-26T15:36:29.077Z,99795.00
2022-08-26T15:39:07.997Z,99795.20
2022-08-26T15:41:43.134Z,99801.60
2022-08-26T15:44:20.789Z,99797.00
2022-08-26T15:46:58.486Z,99793.40
2022-08-26T15:49:33.049Z,99796.60
2022-08-26T15:56:29.245Z,99796.40
2022-08-26T20:23:19.150Z,99823.60
2022-08-26T20:47:19.263Z,99809.40
2022-08-26T20:49:48.473Z,99813.20
2022-08-26T20:52:22.833Z,99814.80
2022-08-26T20:54:52.181Z,99804.80
2022-08-26T20:57:22.037Z,99804.40
2022-08-26T20:59:51.917Z,99805.40
2022-08-26T21:02:21.272Z,99806.40
2022-08-26T21:04:50.982Z,99807.40
2022-08-26T21:07:20.221Z,99815.80
2022-08-26T21:09:51.668Z,99814.80
2022-08-26T21:12:21.316Z,99808.20
2022-08-26T21:14:50.739Z,99808.20
2022-08-26T21:17:20.349Z,99808.40
2022-08-26T21:19:49.731Z,99811.80
2022-08-26T21:22:19.349Z,99809.40
2022-08-26T21:24:48.877Z,99811.00
2022-08-26T21:27:23.047Z,99811.20
2022-08-26T21:30:01.288Z,99811.00
2022-08-26T21:32:31.857Z,99802.80
2022-08-26T21:35:01.988Z,99794.80
2022-08-26T21:37:31.272Z,99787.60
2022-08-26T21:40:03.018Z,99788.20
2022-08-26T21:42:34.739Z,99785.20
2022-08-26T21:45:06.892Z,99785.80
2022-08-26T21:47:36.221Z,99788.00
2022-08-26T21:50:08.249Z,99786.00
2022-08-26T21:52:39.134Z,99788.00
2022-08-26T21:55:11.737Z,99782.60
2022-08-26T21:57:41.249Z,99780.60
2022-08-26T22:00:16.227Z,99780.00
2022-08-26T22:02:47.673Z,99784.80
2022-08-26T22:05:18.311Z,99792.40
2022-08-26T22:07:49.087Z,99792.80
2022-08-26T22:10:18.880Z,99800.60
2022-08-26T22:12:48.264Z,99798.00
2022-08-26T22:15:22.473Z,99798.20
2022-08-26T22:17:51.777Z,99794.40
2022-08-26T22:20:23.420Z,99791.00
2022-08-26T22:22:52.625Z,99784.20
2022-08-26T22:25:22.043Z,99776.20
2022-08-26T22:27:51.586Z,99772.20
2022-08-26T22:30:21.394Z,99780.40
2022-08-26T22:32:50.712Z,99789.40
2022-08-26T22:36:07.670Z,99789.20
2022-08-26T22:38:37.339Z,99782.00
2022-08-26T22:41:09.502Z,99767.20
2022-08-26T22:43:39.764Z,99767.00
2022-08-26T22:46:15.196Z,99765.00
2022-08-26T22:54:50.924Z,99759.60
2022-08-26T22:57:23.584Z,99762.80
2022-08-26T22:59:53.227Z,99762.40
2022-08-26T23:02:22.595Z,99757.00
2022-08-26T23:06:06.184Z,99757.20
2022-08-26T23:08:35.768Z,99756.40
2022-08-26T23:11:10.979Z,99754.40
2022-08-26T23:13:44.756Z,99751.80
2022-08-26T23:16:14.475Z,99747.40
2022-08-26T23:18:46.851Z,99743.80
2022-08-26T23:59:44.751Z,99741.60
